Time;durP1;ratioP1;P1;durP2;ratioP2;P2;SDS_P1;SDS_P2;PMS_P1;PMS_P2;Temp;Humidity;BMP_temperature;BMP_pressure;BME280_temperature;BME280_humidity;BME280_pressure;Samples;Min_cycle;Max_cycle;Signal;HPM_P1;HPM_P2
2023/02/24 00:01:36;;;;;;;1.73;1.60;;;;;;;;;;5051322;28;20186;-45
2023/02/24 00:04:03;;;;;;;1.60;1.50;;;;;;;;;;5053217;28;20554;-44
2023/02/24 00:06:35;;;;;;;2.05;1.63;;;;;;;;;;5042302;28;20179;-44
2023/02/24 00:09:18;;;;;;;1.40;1.30;;;;;;;;;;5064139;28;20747;-45
2023/02/24 00:11:45;;;;;;;1.60;1.50;;;;;;;;;;5057451;28;20554;-44
2023/02/24 00:14:14;;;;;;;1.67;1.45;;;;;;;;;;5041481;28;20207;-45
2023/02/24 00:16:41;;;;;;;1.40;1.30;;;;;;;;;;5058250;28;20186;-45
2023/02/24 00:19:07;;;;;;;1.70;1.60;;;;;;;;;;5068791;28;20195;-44
2023/02/24 00:21:34;;;;;;;1.80;1.70;;;;;;;;;;5065647;28;20245;-45
2023/02/24 00:24:00;;;;;;;1.63;1.50;;;;;;;;;;5056683;28;20179;-45
2023/02/24 00:26:28;;;;;;;1.70;1.60;;;;;;;;;;5047941;28;20183;-45
2023/02/24 00:28:54;;;;;;;1.40;1.30;;;;;;;;;;5075797;28;20504;-44
2023/02/24 00:31:22;;;;;;;1.40;1.30;;;;;;;;;;5063275;28;20170;-44
2023/02/24 00:33:48;;;;;;;1.45;1.35;;;;;;;;;;5065864;28;20191;-45
2023/02/24 00:36:22;;;;;;;1.52;1.35;;;;;;;;;;5053242;28;20186;-44
2023/02/24 00:38:49;;;;;;;1.42;1.30;;;;;;;;;;5059467;28;20205;-44
2023/02/24 00:41:16;;;;;;;1.60;1.50;;;;;;;;;;5049046;28;20227;-44
2023/02/24 00:43:45;;;;;;;1.60;1.50;;;;;;;;;;5050894;28;20184;-44
2023/02/24 00:46:12;;;;;;;1.63;1.52;;;;;;;;;;5062723;28;20178;-44
2023/02/24 00:48:41;;;;;;;1.88;1.58;;;;;;;;;;5067834;28;20334;-45
2023/02/24 00:51:10;;;;;;;1.52;1.40;;;;;;;;;;5053798;28;20168;-44
2023/02/24 00:53:37;;;;;;;1.45;1.35;;;;;;;;;;5043901;28;20246;-44
2023/02/24 00:56:06;;;;;;;1.38;1.27;;;;;;;;;;5054686;28;20194;-44
2023/02/24 00:58:33;;;;;;;1.40;1.30;;;;;;;;;;5054276;28;20194;-44
2023/02/24 01:00:59;;;;;;;1.52;1.42;;;;;;;;;;5047451;28;20455;-45
2023/02/24 01:03:26;;;;;;;1.58;1.48;;;;;;;;;;5047970;28;20175;-44
2023/02/24 01:05:52;;;;;;;1.50;1.40;;;;;;;;;;5043202;28;20188;-44
2023/02/24 01:08:20;;;;;;;1.23;1.13;;;;;;;;;;5039722;28;20245;-44
2023/02/24 01:12:00;;;;;;;1.50;1.40;;;;;;;;;;5048195;28;20187;-44
2023/02/24 01:13:40;;;;;;;2.00;1.80;;;;;;;;;;5054881;28;20211;-44
2023/02/24 01:16:06;;;;;;;2.05;1.85;;;;;;;;;;5042579;28;20578;-44
2023/02/24 01:18:32;;;;;;;2.20;1.70;;;;;;;;;;5044776;28;20294;-44
2023/02/24 01:20:58;;;;;;;1.55;1.27;;;;;;;;;;5048331;28;20183;-45
2023/02/24 01:23:24;;;;;;;1.83;1.60;;;;;;;;;;5044718;28;20199;-44
2023/02/24 01:25:50;;;;;;;1.52;1.38;;;;;;;;;;5059089;28;20183;-44
2023/02/24 01:28:16;;;;;;;1.60;1.50;;;;;;;;;;5048334;28;20203;-44
2023/02/24 01:30:43;;;;;;;1.77;1.42;;;;;;;;;;5052184;28;20179;-44
2023/02/24 01:33:13;;;;;;;1.70;1.60;;;;;;;;;;5038135;28;20180;-44
2023/02/24 01:35:39;;;;;;;1.77;1.60;;;;;;;;;;5055975;28;20228;-45
2023/02/24 01:38:05;;;;;;;1.50;1.40;;;;;;;;;;5046543;28;20448;-44
2023/02/24 01:40:31;;;;;;;1.40;1.30;;;;;;;;;;5056204;28;20187;-44
2023/02/24 01:42:57;;;;;;;1.50;1.40;;;;;;;;;;5053599;28;20178;-44
2023/02/24 01:45:27;;;;;;;1.50;1.40;;;;;;;;;;5048524;28;20273;-44
2023/02/24 01:47:55;;;;;;;1.63;1.52;;;;;;;;;;5050707;28;20197;-44
2023/02/24 01:50:24;;;;;;;1.40;1.30;;;;;;;;;;5054308;28;20488;-44
2023/02/24 01:52:54;;;;;;;1.65;1.55;;;;;;;;;;5051839;28;20178;-44
2023/02/24 01:55:24;;;;;;;1.95;1.30;;;;;;;;;;5047927;28;20207;-44
2023/02/24 01:57:51;;;;;;;1.63;1.30;;;;;;;;;;5058714;28;20171;-44
2023/02/24 02:00:31;;;;;;;1.67;1.40;;;;;;;;;;5049009;28;20172;-44
2023/02/24 02:02:59;;;;;;;1.67;1.50;;;;;;;;;;5046545;28;20183;-44
2023/02/24 02:05:25;;;;;;;1.70;1.60;;;;;;;;;;5065647;28;21035;-45
2023/02/24 02:07:52;;;;;;;1.63;1.45;;;;;;;;;;5045633;28;20214;-44
2023/02/24 02:10:18;;;;;;;1.80;1.60;;;;;;;;;;5055116;28;20182;-44
2023/02/24 02:12:44;;;;;;;1.50;1.40;;;;;;;;;;5058308;28;20234;-44
2023/02/24 02:15:12;;;;;;;1.35;1.25;;;;;;;;;;5055313;28;20249;-44
2023/02/24 02:17:56;;;;;;;1.60;1.50;;;;;;;;;;5056085;28;20175;-44
2023/02/24 02:20:25;;;;;;;1.60;1.50;;;;;;;;;;5063898;28;20190;-44
2023/02/24 02:22:59;;;;;;;2.03;1.38;;;;;;;;;;5054941;28;20180;-44
2023/02/24 02:25:37;;;;;;;1.70;1.60;;;;;;;;;;5054231;28;20186;-44
2023/02/24 02:28:03;;;;;;;1.60;1.50;;;;;;;;;;5058817;28;20281;-45
2023/02/24 02:30:42;;;;;;;1.48;1.38;;;;;;;;;;5048290;28;20266;-44
2023/02/24 02:33:20;;;;;;;1.50;1.40;;;;;;;;;;5049711;28;20174;-45
2023/02/24 02:35:46;;;;;;;1.63;1.50;;;;;;;;;;5055036;28;20465;-44
2023/02/24 02:38:33;;;;;;;1.70;1.60;;;;;;;;;;5044064;28;20202;-44
2023/02/24 02:41:23;;;;;;;1.45;1.35;;;;;;;;;;5051910;28;20562;-45
2023/02/24 02:43:56;;;;;;;1.70;1.60;;;;;;;;;;5056222;28;20270;-44
2023/02/24 02:46:33;;;;;;;1.25;1.20;;;;;;;;;;5050760;28;20421;-44
2023/02/24 02:49:01;;;;;;;1.60;1.50;;;;;;;;;;5034064;28;20179;-45
2023/02/24 02:51:37;;;;;;;1.52;1.42;;;;;;;;;;5041485;28;20613;-44
2023/02/24 02:54:11;;;;;;;1.67;1.50;;;;;;;;;;5036294;28;20226;-45
2023/02/24 02:56:41;;;;;;;1.50;1.40;;;;;;;;;;5042596;28;20182;-44
2023/02/24 02:59:11;;;;;;;1.67;1.55;;;;;;;;;;5047161;28;20573;-45
2023/02/24 03:01:40;;;;;;;2.45;1.70;;;;;;;;;;5046858;28;20179;-45
2023/02/24 03:04:07;;;;;;;1.98;1.63;;;;;;;;;;5048458;28;20188;-45
2023/02/24 03:06:36;;;;;;;1.85;1.75;;;;;;;;;;5041205;28;20590;-44
2023/02/24 03:09:10;;;;;;;1.67;1.58;;;;;;;;;;5044663;28;20176;-44
2023/02/24 03:11:36;;;;;;;1.67;1.58;;;;;;;;;;5040646;28;20184;-44
2023/02/24 03:14:02;;;;;;;1.60;1.50;;;;;;;;;;5051566;28;20211;-44
2023/02/24 03:16:28;;;;;;;1.52;1.42;;;;;;;;;;5043079;28;20198;-45
2023/02/24 03:18:57;;;;;;;1.33;1.23;;;;;;;;;;5037239;28;20578;-44
2023/02/24 03:21:33;;;;;;;1.23;1.10;;;;;;;;;;5043273;28;20556;-45
2023/02/24 03:24:01;;;;;;;1.38;1.27;;;;;;;;;;5046094;28;20614;-44
2023/02/24 03:26:32;;;;;;;1.27;1.17;;;;;;;;;;5041758;28;20725;-45
2023/02/24 03:28:58;;;;;;;1.48;1.38;;;;;;;;;;5044872;28;20239;-44
2023/02/24 03:31:38;;;;;;;1.30;1.20;;;;;;;;;;5045415;28;20179;-44
2023/02/24 03:34:14;;;;;;;1.10;1.10;;;;;;;;;;5060143;28;20213;-44
2023/02/24 03:36:41;;;;;;;2.00;1.50;;;;;;;;;;5068533;28;20336;-44
2023/02/24 03:39:10;;;;;;;1.30;1.20;;;;;;;;;;5062856;28;20180;-44
2023/02/24 03:41:45;;;;;;;1.02;1.02;;;;;;;;;;5053035;28;20613;-45
2023/02/24 03:44:11;;;;;;;1.30;1.20;;;;;;;;;;5046317;28;20198;-44
2023/02/24 03:46:41;;;;;;;1.27;1.20;;;;;;;;;;5052509;28;20184;-45
2023/02/24 03:49:15;;;;;;;1.23;1.20;;;;;;;;;;5059301;28;20430;-44
2023/02/24 03:51:43;;;;;;;1.38;1.27;;;;;;;;;;5053564;28;20183;-44
2023/02/24 03:54:31;;;;;;;1.08;1.08;;;;;;;;;;5059057;28;20241;-45
2023/02/24 03:57:17;;;;;;;1.63;1.08;;;;;;;;;;5065806;28;20186;-44
2023/02/24 03:59:43;;;;;;;1.50;1.40;;;;;;;;;;5053264;28;20282;-45
2023/02/24 04:02:17;;;;;;;1.20;1.10;;;;;;;;;;5047729;28;20685;-44
2023/02/24 04:04:47;;;;;;;1.30;1.20;;;;;;;;;;5050574;28;20566;-45
2023/02/24 04:07:32;;;;;;;1.30;1.20;;;;;;;;;;5044010;28;20258;-44
2023/02/24 04:10:01;;;;;;;1.13;1.13;;;;;;;;;;5049222;28;20237;-45
2023/02/24 04:12:27;;;;;;;1.20;1.10;;;;;;;;;;5055443;28;20198;-44
2023/02/24 04:14:53;;;;;;;1.15;1.15;;;;;;;;;;5056467;28;20207;-45
2023/02/24 04:17:22;;;;;;;1.17;1.15;;;;;;;;;;5045645;28;20198;-44
2023/02/24 04:19:50;;;;;;;1.67;1.10;;;;;;;;;;5040238;28;20207;-44
2023/02/24 04:22:18;;;;;;;1.15;1.10;;;;;;;;;;5044773;28;20172;-44
2023/02/24 04:24:46;;;;;;;1.80;1.25;;;;;;;;;;5051982;28;20245;-44
2023/02/24 04:27:14;;;;;;;1.13;1.02;;;;;;;;;;5058809;28;20179;-44
2023/02/24 04:29:45;;;;;;;1.10;0.90;;;;;;;;;;5051949;28;20191;-44
2023/02/24 04:32:13;;;;;;;1.05;0.95;;;;;;;;;;5062636;28;20205;-44
2023/02/24 04:34:39;;;;;;;0.80;0.80;;;;;;;;;;5063873;28;20234;-44
2023/02/24 04:37:05;;;;;;;1.05;1.00;;;;;;;;;;5053283;28;20175;-44
2023/02/24 04:39:31;;;;;;;0.98;0.98;;;;;;;;;;5050555;28;20183;-44
2023/02/24 04:41:57;;;;;;;0.90;0.90;;;;;;;;;;5062019;28;20609;-44
2023/02/24 04:44:24;;;;;;;1.10;1.00;;;;;;;;;;5062098;28;20236;-44
2023/02/24 04:46:51;;;;;;;1.77;1.25;;;;;;;;;;5049500;28;20176;-44
2023/02/24 04:49:17;;;;;;;1.20;1.10;;;;;;;;;;5040919;28;20218;-44
2023/02/24 04:51:43;;;;;;;0.93;0.93;;;;;;;;;;5051698;28;20187;-45
2023/02/24 04:54:14;;;;;;;1.13;1.00;;;;;;;;;;5059977;28;20507;-44
2023/02/24 04:56:40;;;;;;;1.02;0.93;;;;;;;;;;5047394;28;20171;-44
2023/02/24 04:59:09;;;;;;;1.00;0.90;;;;;;;;;;5049870;28;20225;-44
2023/02/24 05:01:38;;;;;;;1.70;1.30;;;;;;;;;;5051909;28;20171;-44
2023/02/24 05:04:04;;;;;;;1.25;1.00;;;;;;;;;;5051779;28;20172;-44
2023/02/24 05:06:30;;;;;;;1.10;1.00;;;;;;;;;;5039069;28;20259;-45
2023/02/24 05:08:56;;;;;;;1.27;1.17;;;;;;;;;;5043347;28;20380;-44
2023/02/24 05:11:22;;;;;;;0.90;0.90;;;;;;;;;;5040951;28;20191;-44
2023/02/24 05:13:48;;;;;;;1.88;1.40;;;;;;;;;;5052166;28;20191;-44
2023/02/24 05:16:16;;;;;;;4.10;1.65;;;;;;;;;;5043747;28;20179;-44
2023/02/24 05:18:43;;;;;;;5.68;2.28;;;;;;;;;;5044556;28;20274;-45
2023/02/24 05:23:58;;;;;;;7.90;2.80;;;;;;;;;;5060517;28;20465;-45
2023/02/24 05:26:24;;;;;;;8.40;2.80;;;;;;;;;;5056714;28;20534;-45
2023/02/24 05:28:51;;;;;;;8.30;2.55;;;;;;;;;;5049230;28;20242;-44
2023/02/24 05:31:24;;;;;;;7.03;2.63;;;;;;;;;;5051167;28;20564;-45
2023/02/24 05:33:56;;;;;;;7.75;3.00;;;;;;;;;;5053412;28;20203;-44
2023/02/24 05:36:22;;;;;;;8.82;2.78;;;;;;;;;;5045233;28;20179;-45
2023/02/24 05:38:54;;;;;;;8.65;2.97;;;;;;;;;;5054547;28;20199;-45
2023/02/24 05:41:21;;;;;;;9.57;3.15;;;;;;;;;;5054387;28;20176;-45
2023/02/24 05:43:51;;;;;;;8.13;2.80;;;;;;;;;;5068110;28;20614;-45
2023/02/24 05:46:18;;;;;;;6.03;2.90;;;;;;;;;;5045324;28;20261;-45
2023/02/24 05:48:45;;;;;;;8.93;3.17;;;;;;;;;;5042663;28;20176;-45
2023/02/24 05:51:12;;;;;;;8.15;3.10;;;;;;;;;;5053413;28;20180;-45
2023/02/24 05:53:40;;;;;;;5.88;2.30;;;;;;;;;;5053608;28;20183;-45
2023/02/24 05:56:06;;;;;;;6.32;3.28;;;;;;;;;;5056045;28;20263;-44
2023/02/24 05:58:32;;;;;;;7.47;3.00;;;;;;;;;;5037404;28;20263;-45
2023/02/24 06:01:05;;;;;;;3.88;2.15;;;;;;;;;;5053069;28;20553;-44
2023/02/24 06:03:34;;;;;;;10.38;3.08;;;;;;;;;;5042210;28;20183;-45
2023/02/24 06:06:04;;;;;;;6.22;2.53;;;;;;;;;;5039141;28;20218;-45
2023/02/24 06:08:40;;;;;;;5.07;2.45;;;;;;;;;;5053813;28;20214;-44
2023/02/24 06:11:07;;;;;;;8.30;2.47;;;;;;;;;;5063581;28;20185;-44
2023/02/24 06:13:33;;;;;;;7.45;2.70;;;;;;;;;;5042785;28;20186;-45
2023/02/24 06:15:59;;;;;;;5.43;2.55;;;;;;;;;;5047270;28;20214;-44
2023/02/24 06:18:25;;;;;;;6.45;2.60;;;;;;;;;;5061848;28;20186;-44
2023/02/24 06:20:52;;;;;;;5.50;2.95;;;;;;;;;;5060371;28;20195;-44
2023/02/24 06:23:18;;;;;;;6.57;2.58;;;;;;;;;;5061656;28;20163;-44
2023/02/24 06:25:44;;;;;;;3.42;2.42;;;;;;;;;;5062173;28;20171;-44
2023/02/24 06:28:10;;;;;;;3.65;2.35;;;;;;;;;;5046731;28;20265;-45
2023/02/24 06:30:36;;;;;;;6.38;2.65;;;;;;;;;;5056201;28;20179;-44
2023/02/24 06:33:04;;;;;;;5.75;2.17;;;;;;;;;;5071923;28;20170;-45
2023/02/24 06:35:31;;;;;;;6.22;2.67;;;;;;;;;;5069373;28;20194;-45
2023/02/24 06:37:57;;;;;;;5.05;2.15;;;;;;;;;;5045001;28;20267;-44
2023/02/24 06:40:23;;;;;;;3.85;2.40;;;;;;;;;;5051371;28;20298;-44
2023/02/24 06:42:55;;;;;;;3.17;1.92;;;;;;;;;;5053729;28;20202;-45
2023/02/24 06:45:23;;;;;;;4.72;2.38;;;;;;;;;;5063365;28;20462;-44
2023/02/24 06:47:48;;;;;;;7.80;2.92;;;;;;;;;;5059170;28;20184;-45
2023/02/24 06:50:18;;;;;;;5.75;2.20;;;;;;;;;;5053031;28;20180;-44
2023/02/24 06:52:44;;;;;;;5.13;2.30;;;;;;;;;;5038039;28;20180;-44
2023/02/24 06:55:24;;;;;;;3.38;2.03;;;;;;;;;;5034781;28;20298;-44
2023/02/24 06:57:51;;;;;;;4.50;2.10;;;;;;;;;;5044094;28;20484;-44
2023/02/24 07:00:24;;;;;;;4.13;2.28;;;;;;;;;;5054165;28;20412;-44
2023/02/24 07:02:49;;;;;;;4.95;2.15;;;;;;;;;;5037619;28;20180;-44
2023/02/24 07:05:15;;;;;;;3.58;1.88;;;;;;;;;;5043982;28;20191;-44
2023/02/24 07:07:44;;;;;;;3.97;1.98;;;;;;;;;;5051860;28;20191;-45
2023/02/24 07:10:12;;;;;;;4.13;2.30;;;;;;;;;;5038361;28;20252;-44
2023/02/24 07:12:40;;;;;;;5.32;2.50;;;;;;;;;;5042926;28;20187;-44
2023/02/24 07:15:06;;;;;;;3.67;2.10;;;;;;;;;;5045300;28;20198;-45
2023/02/24 07:17:32;;;;;;;3.97;2.17;;;;;;;;;;5052805;28;20586;-44
2023/02/24 07:20:09;;;;;;;3.25;2.10;;;;;;;;;;5047336;28;20270;-44
2023/02/24 07:22:36;;;;;;;3.60;2.00;;;;;;;;;;5049701;28;20183;-45
2023/02/24 07:25:02;;;;;;;3.58;1.70;;;;;;;;;;5061645;28;20308;-45
2023/02/24 07:27:28;;;;;;;4.47;1.80;;;;;;;;;;5054865;28;20269;-45
2023/02/24 07:29:54;;;;;;;2.80;1.80;;;;;;;;;;5050328;28;20211;-44
2023/02/24 07:32:21;;;;;;;3.95;1.90;;;;;;;;;;5060332;28;20502;-44
2023/02/24 07:34:47;;;;;;;4.55;1.98;;;;;;;;;;5060471;28;20286;-44
2023/02/24 07:37:13;;;;;;;2.38;2.03;;;;;;;;;;5053208;28;20180;-44
2023/02/24 07:39:41;;;;;;;2.60;2.00;;;;;;;;;;5062403;28;20564;-44
2023/02/24 07:42:08;;;;;;;3.78;1.83;;;;;;;;;;5057118;28;20221;-45
2023/02/24 07:44:34;;;;;;;3.03;2.00;;;;;;;;;;5048601;28;20188;-44
2023/02/24 07:47:06;;;;;;;3.90;1.92;;;;;;;;;;5049327;28;20183;-44
2023/02/24 07:49:32;;;;;;;3.70;1.85;;;;;;;;;;5050644;28;20450;-44
2023/02/24 07:51:58;;;;;;;3.22;1.92;;;;;;;;;;5070444;28;20190;-44
2023/02/24 07:54:27;;;;;;;3.65;2.03;;;;;;;;;;5056140;28;20200;-44
2023/02/24 07:56:57;;;;;;;3.30;1.70;;;;;;;;;;5051116;28;20203;-44
2023/02/24 07:59:24;;;;;;;3.63;1.83;;;;;;;;;;5048533;28;20168;-44
2023/02/24 08:01:50;;;;;;;3.38;1.80;;;;;;;;;;5056996;28;20236;-44
2023/02/24 08:04:22;;;;;;;3.40;1.70;;;;;;;;;;5045591;28;20256;-44
2023/02/24 08:06:54;;;;;;;3.83;1.70;;;;;;;;;;5069171;28;20182;-44
2023/02/24 08:09:45;;;;;;;2.30;1.58;;;;;;;;;;5053882;28;20228;-44
2023/02/24 08:12:06;;;;;;;3.42;1.65;;;;;;;;;;5055087;28;20278;-45
2023/02/24 08:14:33;;;;;;;3.45;1.77;;;;;;;;;;5056762;28;20210;-45
2023/02/24 08:17:00;;;;;;;1.90;1.42;;;;;;;;;;5061715;28;20178;-45
2023/02/24 08:19:31;;;;;;;3.75;1.63;;;;;;;;;;5048241;28;20275;-44
2023/02/24 08:22:06;;;;;;;2.13;1.23;;;;;;;;;;5053604;28;20175;-45
2023/02/24 08:24:34;;;;;;;3.97;1.75;;;;;;;;;;5061228;28;20237;-44
2023/02/24 08:27:04;;;;;;;2.35;1.55;;;;;;;;;;5056204;28;20171;-45
2023/02/24 08:29:56;;;;;;;4.55;1.60;;;;;;;;;;5057577;28;20241;-44
2023/02/24 08:32:23;;;;;;;1.95;1.40;;;;;;;;;;5042198;28;20190;-45
2023/02/24 08:34:49;;;;;;;1.73;1.38;;;;;;;;;;5057196;28;20526;-44
2023/02/24 08:37:15;;;;;;;2.33;1.60;;;;;;;;;;5070865;28;20168;-44
2023/02/24 08:39:43;;;;;;;3.28;1.48;;;;;;;;;;5062703;28;20450;-44
2023/02/24 08:42:13;;;;;;;2.33;1.48;;;;;;;;;;5068610;28;20219;-44
2023/02/24 08:44:39;;;;;;;1.33;1.13;;;;;;;;;;5062843;28;20302;-45
2023/02/24 08:47:06;;;;;;;1.58;1.23;;;;;;;;;;5052701;28;20278;-44
2023/02/24 08:49:32;;;;;;;2.00;1.38;;;;;;;;;;5056705;28;20332;-45
2023/02/24 08:52:01;;;;;;;1.38;1.27;;;;;;;;;;5056373;28;20193;-45
2023/02/24 08:54:30;;;;;;;2.28;1.52;;;;;;;;;;5053919;28;20605;-45
2023/02/24 08:56:56;;;;;;;1.60;1.38;;;;;;;;;;5050585;28;20183;-44
2023/02/24 08:59:39;;;;;;;3.20;1.30;;;;;;;;;;5046828;28;20733;-44
2023/02/24 09:02:38;;;;;;;1.42;1.20;;;;;;;;;;5044769;28;20474;-45
2023/02/24 09:05:09;;;;;;;2.08;1.17;;;;;;;;;;5048862;28;20187;-45
2023/02/24 09:07:35;;;;;;;1.42;1.17;;;;;;;;;;5052722;28;20190;-44
2023/02/24 09:10:03;;;;;;;1.85;1.30;;;;;;;;;;5072455;28;20187;-44
2023/02/24 09:12:29;;;;;;;2.67;1.42;;;;;;;;;;5052479;28;20186;-44
2023/02/24 09:15:01;;;;;;;1.75;1.50;;;;;;;;;;5057964;28;20558;-44
2023/02/24 09:17:38;;;;;;;2.80;1.48;;;;;;;;;;5058930;28;20201;-44
2023/02/24 09:23:06;;;;;;;2.15;1.23;;;;;;;;;;5070466;28;20193;-44
2023/02/24 09:25:39;;;;;;;1.60;1.10;;;;;;;;;;5044155;28;20563;-44
2023/02/24 09:28:08;;;;;;;1.70;1.20;;;;;;;;;;5045204;28;20215;-44
2023/02/24 09:30:37;;;;;;;1.33;1.00;;;;;;;;;;5038829;28;20218;-44
2023/02/24 09:33:07;;;;;;;1.98;1.10;;;;;;;;;;5036835;28;20267;-46
2023/02/24 09:35:35;;;;;;;1.60;1.35;;;;;;;;;;5042444;28;20203;-44
2023/02/24 09:38:04;;;;;;;1.52;1.10;;;;;;;;;;5035089;28;20176;-44
2023/02/24 09:40:38;;;;;;;1.48;1.35;;;;;;;;;;5046666;28;20288;-44
2023/02/24 09:43:09;;;;;;;1.90;1.17;;;;;;;;;;5065349;28;20181;-44
2023/02/24 09:45:38;;;;;;;1.23;1.10;;;;;;;;;;5043639;28;20184;-44
2023/02/24 09:48:20;;;;;;;1.23;1.10;;;;;;;;;;5038724;28;20171;-44
2023/02/24 09:50:59;;;;;;;1.63;1.25;;;;;;;;;;5041217;28;20172;-44
2023/02/24 09:53:28;;;;;;;1.30;1.20;;;;;;;;;;5043063;28;20180;-44
2023/02/24 09:56:05;;;;;;;2.28;0.93;;;;;;;;;;5049305;28;20207;-44
2023/02/24 09:58:37;;;;;;;1.83;1.27;;;;;;;;;;5053982;28;20179;-44
2023/02/24 10:01:19;;;;;;;1.60;1.38;;;;;;;;;;5047271;28;20179;-44
2023/02/24 10:03:47;;;;;;;1.00;0.95;;;;;;;;;;5059356;28;20487;-44
2023/02/24 10:06:20;;;;;;;1.10;1.00;;;;;;;;;;5050777;28;20179;-44
2023/02/24 10:08:49;;;;;;;1.77;1.20;;;;;;;;;;5043910;28;20563;-45
2023/02/24 10:11:31;;;;;;;1.30;1.10;;;;;;;;;;5070820;28;20190;-44
2023/02/24 10:13:57;;;;;;;1.40;1.02;;;;;;;;;;5061065;28;20183;-44
2023/02/24 10:16:23;;;;;;;1.75;1.20;;;;;;;;;;5049592;28;20186;-44
2023/02/24 10:19:10;;;;;;;1.38;1.27;;;;;;;;;;5041678;28;20449;-44
2023/02/24 10:21:59;;;;;;;1.60;1.30;;;;;;;;;;5049881;28;20265;-45
2023/02/24 10:24:33;;;;;;;0.80;0.80;;;;;;;;;;5062837;28;20192;-44
2023/02/24 10:27:11;;;;;;;1.35;1.25;;;;;;;;;;5050343;28;20179;-45
2023/02/24 10:29:59;;;;;;;1.58;1.40;;;;;;;;;;5053432;28;20265;-45
2023/02/24 10:32:40;;;;;;;1.20;1.10;;;;;;;;;;5049703;28;20201;-44
2023/02/24 10:35:13;;;;;;;1.33;1.00;;;;;;;;;;5062133;28;20205;-45
2023/02/24 10:37:39;;;;;;;1.00;0.90;;;;;;;;;;5061984;28;20178;-44
2023/02/24 10:40:08;;;;;;;1.15;1.02;;;;;;;;;;5060665;28;20189;-44
2023/02/24 10:42:36;;;;;;;1.30;1.00;;;;;;;;;;5065118;28;20192;-44
2023/02/24 10:45:16;;;;;;;1.58;1.05;;;;;;;;;;5072575;28;20178;-45
2023/02/24 10:47:45;;;;;;;1.00;0.90;;;;;;;;;;5059018;28;20221;-45
2023/02/24 10:50:25;;;;;;;1.40;1.13;;;;;;;;;;5063512;28;20202;-45
2023/02/24 10:58:26;;;;;;;1.65;1.10;;;;;;;;;;5053405;28;20190;-44
2023/02/24 11:01:10;;;;;;;1.20;1.10;;;;;;;;;;5058111;28;20183;-44
2023/02/24 11:03:45;;;;;;;1.33;0.95;;;;;;;;;;5052110;28;20199;-45
2023/02/24 11:06:40;;;;;;;2.10;1.10;;;;;;;;;;5049830;28;20182;-44
2023/02/24 11:09:18;;;;;;;1.30;0.95;;;;;;;;;;5044254;28;20180;-44
2023/02/24 11:17:19;;;;;;;1.00;1.00;;;;;;;;;;5041096;28;20253;-45
2023/02/24 11:19:54;;;;;;;1.85;1.15;;;;;;;;;;5048666;28;20183;-44
2023/02/24 11:22:21;;;;;;;0.85;0.85;;;;;;;;;;5057118;28;20438;-45
2023/02/24 11:24:47;;;;;;;1.00;0.90;;;;;;;;;;5079189;28;20178;-44
2023/02/24 11:27:16;;;;;;;1.48;1.00;;;;;;;;;;5058285;28;20217;-45
2023/02/24 11:29:47;;;;;;;1.20;1.10;;;;;;;;;;5066296;28;20219;-45
2023/02/24 11:32:20;;;;;;;0.90;0.90;;;;;;;;;;5059748;28;20190;-44
2023/02/24 11:35:10;;;;;;;0.70;0.70;;;;;;;;;;5055695;28;20202;-44
2023/02/24 11:37:38;;;;;;;0.90;0.90;;;;;;;;;;5063029;28;20201;-44
2023/02/24 11:40:11;;;;;;;1.05;0.95;;;;;;;;;;5059253;28;20592;-44
2023/02/24 11:42:40;;;;;;;1.48;1.08;;;;;;;;;;5051845;28;20509;-44
2023/02/24 11:45:21;;;;;;;1.00;0.90;;;;;;;;;;5044674;28;20166;-44
2023/02/24 11:48:03;;;;;;;1.30;1.13;;;;;;;;;;5065275;28;20199;-44
2023/02/24 11:50:39;;;;;;;0.80;0.80;;;;;;;;;;5054877;28;20187;-44
2023/02/24 11:53:11;;;;;;;0.95;0.85;;;;;;;;;;5045384;28;20186;-44
2023/02/24 11:55:41;;;;;;;0.70;0.70;;;;;;;;;;5045460;28;20219;-44
2023/02/24 11:58:12;;;;;;;1.17;0.93;;;;;;;;;;5037401;28;20267;-44
2023/02/24 12:00:41;;;;;;;1.23;0.98;;;;;;;;;;5043029;28;20191;-44
2023/02/24 12:03:22;;;;;;;0.82;0.80;;;;;;;;;;5039087;28;20182;-44
2023/02/24 12:05:50;;;;;;;1.00;0.88;;;;;;;;;;5048918;28;20179;-44
2023/02/24 12:08:22;;;;;;;0.90;0.90;;;;;;;;;;5052949;28;20270;-44
2023/02/24 12:10:56;;;;;;;1.02;0.95;;;;;;;;;;5054060;28;20194;-44
2023/02/24 12:13:27;;;;;;;1.08;1.00;;;;;;;;;;5053043;28;20194;-44
2023/02/24 12:15:59;;;;;;;1.65;0.90;;;;;;;;;;5067447;28;20293;-45
2023/02/24 12:18:33;;;;;;;2.38;0.93;;;;;;;;;;5055982;28;20186;-44
2023/02/24 12:21:14;;;;;;;1.35;1.13;;;;;;;;;;5061053;28;20502;-44
2023/02/24 12:23:43;;;;;;;3.17;1.13;;;;;;;;;;5069592;28;20186;-44
2023/02/24 12:26:18;;;;;;;1.52;0.90;;;;;;;;;;5067080;28;20300;-44
2023/02/24 12:28:57;;;;;;;1.05;0.80;;;;;;;;;;5050971;28;20679;-44
2023/02/24 12:31:28;;;;;;;1.80;0.98;;;;;;;;;;5064018;28;20193;-45
2023/02/24 12:34:14;;;;;;;4.15;0.98;;;;;;;;;;5073884;28;20178;-44
2023/02/24 12:36:59;;;;;;;2.08;0.90;;;;;;;;;;5064228;28;20197;-45
2023/02/24 12:39:30;;;;;;;2.85;0.98;;;;;;;;;;5055348;28;20209;-44
2023/02/24 12:42:11;;;;;;;0.98;0.90;;;;;;;;;;5048486;28;20187;-44
2023/02/24 12:44:51;;;;;;;1.60;0.90;;;;;;;;;;5063405;28;20183;-44
2023/02/24 12:47:26;;;;;;;0.98;0.75;;;;;;;;;;5051900;28;20239;-45
2023/02/24 12:49:59;;;;;;;1.63;0.90;;;;;;;;;;5055292;28;20190;-45
2023/02/24 12:52:51;;;;;;;0.82;0.80;;;;;;;;;;5038455;28;20188;-44
2023/02/24 12:55:24;;;;;;;0.75;0.70;;;;;;;;;;5043973;28;20283;-44
2023/02/24 12:58:08;;;;;;;0.80;0.80;;;;;;;;;;5046671;28;20187;-44
2023/02/24 13:00:37;;;;;;;1.77;1.00;;;;;;;;;;5035523;28;20194;-44
2023/02/24 13:03:22;;;;;;;1.23;1.00;;;;;;;;;;5048620;28;20168;-44
2023/02/24 13:05:51;;;;;;;1.08;0.90;;;;;;;;;;5037285;28;20179;-44
2023/02/24 13:08:24;;;;;;;1.35;1.00;;;;;;;;;;5048603;28;20182;-45
2023/02/24 13:10:59;;;;;;;1.10;1.00;;;;;;;;;;5049585;28;20178;-44
2023/02/24 13:13:29;;;;;;;1.75;1.25;;;;;;;;;;5063021;28;20193;-44
2023/02/24 13:15:57;;;;;;;1.75;0.80;;;;;;;;;;5040767;28;20472;-45
2023/02/24 13:18:30;;;;;;;1.10;1.00;;;;;;;;;;5046380;28;20192;-44
2023/02/24 13:21:04;;;;;;;1.15;0.90;;;;;;;;;;5045714;28;20197;-44
2023/02/24 13:23:30;;;;;;;1.27;0.73;;;;;;;;;;5044446;28;20298;-44
2023/02/24 13:25:56;;;;;;;1.20;0.95;;;;;;;;;;5038511;28;20223;-45
2023/02/24 13:28:32;;;;;;;1.27;0.90;;;;;;;;;;5055119;28;20241;-44
2023/02/24 13:31:03;;;;;;;0.93;0.93;;;;;;;;;;5048153;28;20617;-44
2023/02/24 13:33:39;;;;;;;0.95;0.95;;;;;;;;;;5058811;28;20210;-44
2023/02/24 13:36:07;;;;;;;0.93;0.88;;;;;;;;;;5060708;28;20295;-45
2023/02/24 13:38:34;;;;;;;1.30;1.00;;;;;;;;;;5064938;28;20189;-45
2023/02/24 13:41:19;;;;;;;1.25;0.77;;;;;;;;;;5053068;28;20181;-44
2023/02/24 13:43:56;;;;;;;0.88;0.85;;;;;;;;;;5052823;28;20245;-45
2023/02/24 13:46:22;;;;;;;1.75;1.05;;;;;;;;;;5061733;28;20186;-44
2023/02/24 13:48:53;;;;;;;1.00;0.70;;;;;;;;;;5057249;28;20244;-45
2023/02/24 13:51:30;;;;;;;1.48;0.90;;;;;;;;;;5057947;28;20615;-44
2023/02/24 13:54:11;;;;;;;2.05;1.00;;;;;;;;;;5069845;28;20604;-45
2023/02/24 13:56:42;;;;;;;1.98;1.05;;;;;;;;;;5046388;28;20191;-45
2023/02/24 13:59:28;;;;;;;3.10;1.13;;;;;;;;;;5050920;28;20259;-44
2023/02/24 14:01:58;;;;;;;1.60;1.02;;;;;;;;;;5054509;28;20184;-44
2023/02/24 14:04:26;;;;;;;1.17;0.93;;;;;;;;;;5046775;28;20567;-45
2023/02/24 14:06:54;;;;;;;1.52;1.00;;;;;;;;;;5056218;28;20198;-45
2023/02/24 14:09:23;;;;;;;0.75;0.70;;;;;;;;;;5056691;28;20189;-44
2023/02/24 14:11:57;;;;;;;1.00;0.80;;;;;;;;;;5059525;28;20187;-44
2023/02/24 14:14:23;;;;;;;1.02;0.93;;;;;;;;;;5051830;28;20207;-44
2023/02/24 14:16:50;;;;;;;0.90;0.90;;;;;;;;;;5044086;28;20175;-44
2023/02/24 14:19:16;;;;;;;1.63;1.02;;;;;;;;;;5058599;28;20553;-44
2023/02/24 14:21:50;;;;;;;1.15;0.95;;;;;;;;;;5062343;28;20576;-44
2023/02/24 14:24:17;;;;;;;0.80;0.80;;;;;;;;;;5062827;28;20190;-44
2023/02/24 14:26:44;;;;;;;1.05;0.95;;;;;;;;;;5047427;28;20183;-45
2023/02/24 14:29:10;;;;;;;1.35;1.25;;;;;;;;;;5048552;28;20199;-45
2023/02/24 14:31:37;;;;;;;1.70;1.10;;;;;;;;;;5054207;28;20198;-44
2023/02/24 14:34:07;;;;;;;1.38;0.80;;;;;;;;;;5066473;28;20222;-45
2023/02/24 14:36:37;;;;;;;2.17;1.00;;;;;;;;;;5039868;28;20253;-44
2023/02/24 14:39:14;;;;;;;1.55;1.17;;;;;;;;;;5056636;28;20626;-44
2023/02/24 14:41:40;;;;;;;1.52;1.02;;;;;;;;;;5050421;28;20171;-45
2023/02/24 14:44:17;;;;;;;0.90;0.90;;;;;;;;;;5052811;28;20180;-44
2023/02/24 14:46:47;;;;;;;1.77;1.10;;;;;;;;;;5046327;28;20187;-44
2023/02/24 14:49:17;;;;;;;3.13;1.17;;;;;;;;;;5041852;28;20201;-45
2023/02/24 14:51:43;;;;;;;0.93;0.90;;;;;;;;;;5034819;28;20192;-44
2023/02/24 14:54:14;;;;;;;1.23;1.05;;;;;;;;;;5037216;28;20575;-45
2023/02/24 14:56:40;;;;;;;0.82;0.82;;;;;;;;;;5040015;28;20194;-45
2023/02/24 14:59:08;;;;;;;1.33;1.00;;;;;;;;;;5037358;28;20606;-44
2023/02/24 15:01:39;;;;;;;1.85;1.10;;;;;;;;;;5039443;28;20514;-44
2023/02/24 15:04:12;;;;;;;1.17;0.93;;;;;;;;;;5041533;28;20184;-44
2023/02/24 15:06:41;;;;;;;1.13;0.90;;;;;;;;;;5042288;28;20171;-44
2023/02/24 15:09:12;;;;;;;1.63;1.10;;;;;;;;;;5040392;28;20184;-45
2023/02/24 15:11:39;;;;;;;1.38;1.20;;;;;;;;;;5051673;28;20555;-44
2023/02/24 15:14:07;;;;;;;1.10;1.00;;;;;;;;;;5037126;28;20172;-44
2023/02/24 15:16:42;;;;;;;1.90;1.02;;;;;;;;;;5037688;28;20180;-44
2023/02/24 15:19:37;;;;;;;1.67;1.00;;;;;;;;;;5034014;28;20179;-44
2023/02/24 15:22:04;;;;;;;1.42;1.00;;;;;;;;;;5037969;28;20190;-45